createdAt,value
2019-03-27T00:01:13.630Z,1.03
2019-03-27T00:03:43.821Z,1.50
2019-03-27T00:06:14.084Z,1.20
2019-03-27T00:08:44.263Z,0.90
2019-03-27T00:11:16.372Z,1.10
2019-03-27T00:13:46.558Z,1.20
2019-03-27T00:16:16.756Z,1.10
2019-03-27T00:18:46.925Z,1.00
2019-03-27T00:21:17.372Z,1.20
2019-03-27T00:23:47.543Z,1.30
2019-03-27T00:26:17.994Z,1.53
2019-03-27T00:28:48.176Z,1.27
2019-03-27T00:31:18.363Z,1.20
2019-03-27T00:33:48.535Z,1.50
2019-03-27T00:36:18.720Z,1.75
2019-03-27T00:38:48.896Z,1.10
2019-03-27T00:41:21.016Z,1.50
2019-03-27T00:43:51.180Z,1.17
2019-03-27T00:46:21.369Z,1.20
2019-03-27T00:48:51.535Z,1.42
2019-03-27T00:51:21.717Z,1.00
2019-03-27T00:53:51.967Z,1.97
2019-03-27T00:56:22.155Z,1.65
2019-03-27T00:58:52.324Z,1.40
2019-03-27T01:01:22.763Z,1.50
2019-03-27T01:03:52.945Z,1.73
2019-03-27T01:06:23.383Z,1.52
2019-03-27T01:08:53.919Z,1.45
2019-03-27T01:11:24.424Z,1.33
2019-03-27T01:13:54.592Z,1.67
2019-03-27T01:16:24.773Z,1.50
2019-03-27T01:18:54.949Z,1.37
2019-03-27T01:21:25.193Z,1.53
2019-03-27T01:23:55.366Z,1.63
2019-03-27T01:26:25.548Z,1.53
2019-03-27T01:28:55.990Z,2.20
2019-03-27T01:31:26.168Z,1.50
2019-03-27T01:33:56.342Z,1.80
2019-03-27T01:36:26.537Z,1.60
2019-03-27T01:38:56.981Z,1.47
2019-03-27T01:41:27.181Z,1.83
2019-03-27T01:43:57.357Z,1.93
2019-03-27T01:46:27.549Z,1.90
2019-03-27T01:48:57.962Z,1.92
2019-03-27T01:51:28.406Z,2.10
2019-03-27T01:53:59.660Z,1.93
2019-03-27T01:56:29.959Z,1.73
2019-03-27T01:59:00.131Z,1.90
2019-03-27T02:01:30.581Z,2.07
2019-03-27T02:04:00.888Z,2.20
2019-03-27T02:06:31.080Z,2.33
2019-03-27T02:09:01.341Z,2.20
2019-03-27T02:11:32.848Z,2.53
2019-03-27T02:14:03.025Z,2.92
2019-03-27T02:16:33.859Z,2.70
2019-03-27T02:19:04.172Z,2.42
2019-03-27T02:21:34.618Z,2.60
2019-03-27T02:24:04.877Z,2.63
2019-03-27T02:26:35.321Z,3.73
2019-03-27T02:29:05.570Z,3.43
2019-03-27T02:31:35.830Z,3.60
2019-03-27T02:34:06.093Z,4.40
2019-03-27T02:36:36.545Z,3.73
2019-03-27T02:39:07.150Z,4.47
2019-03-27T02:41:37.352Z,4.10
2019-03-27T02:44:07.796Z,3.77
2019-03-27T02:46:37.989Z,3.93
2019-03-27T02:49:08.185Z,4.00
2019-03-27T02:51:38.366Z,4.03
2019-03-27T02:54:08.546Z,4.42
2019-03-27T02:56:38.729Z,4.47
2019-03-27T02:59:08.902Z,4.03
2019-03-27T03:01:39.089Z,3.90
2019-03-27T03:04:09.443Z,4.30
2019-03-27T03:06:39.626Z,4.27
2019-03-27T03:09:09.891Z,4.00
2019-03-27T03:11:40.071Z,4.17
2019-03-27T03:14:10.249Z,3.20
2019-03-27T03:16:42.758Z,2.67
2019-03-27T03:19:12.404Z,2.77
2019-03-27T03:21:43.575Z,2.90
2019-03-27T03:24:13.932Z,3.93
2019-03-27T03:26:44.185Z,2.87
2019-03-27T03:29:14.378Z,3.07
2019-03-27T03:31:44.546Z,3.22
2019-03-27T03:34:14.735Z,2.58
2019-03-27T03:36:44.918Z,3.47
2019-03-27T03:39:15.101Z,3.02
2019-03-27T03:41:45.292Z,3.27
2019-03-27T03:44:15.486Z,3.50
2019-03-27T03:46:58.832Z,3.63
2019-03-27T03:49:18.788Z,3.47
2019-03-27T03:51:49.481Z,3.33
2019-03-27T03:54:20.226Z,3.72
2019-03-27T03:56:52.859Z,4.27
2019-03-27T03:59:24.006Z,4.58
2019-03-27T04:01:55.190Z,4.83
2019-03-27T04:04:25.936Z,4.97
2019-03-27T04:06:56.115Z,4.70
2019-03-27T04:09:26.320Z,5.60
2019-03-27T04:11:56.510Z,5.63
2019-03-27T04:14:26.725Z,5.67
2019-03-27T04:16:56.902Z,5.70
2019-03-27T04:19:27.353Z,6.58
2019-03-27T04:21:57.533Z,6.00
2019-03-27T04:24:27.736Z,6.73
2019-03-27T04:26:58.177Z,6.45
2019-03-27T04:29:28.380Z,5.95
2019-03-27T04:31:58.816Z,5.67
2019-03-27T04:34:29.009Z,6.30
2019-03-27T04:36:59.205Z,6.10
2019-03-27T04:39:29.400Z,6.55
2019-03-27T04:41:59.624Z,6.80
2019-03-27T04:44:29.814Z,6.17
2019-03-27T04:46:59.984Z,6.90
2019-03-27T04:49:30.431Z,6.67
2019-03-27T04:52:00.865Z,6.60
2019-03-27T04:54:31.283Z,6.50
2019-03-27T04:57:01.476Z,6.20
2019-03-27T04:59:32.919Z,6.70
2019-03-27T05:02:06.422Z,7.40
2019-03-27T05:04:35.484Z,7.67
2019-03-27T05:07:05.684Z,7.67
2019-03-27T05:09:36.840Z,7.00
2019-03-27T05:12:07.290Z,6.57
2019-03-27T05:14:37.484Z,8.27
2019-03-27T05:17:07.690Z,7.33
2019-03-27T05:19:37.956Z,7.12
2019-03-27T05:22:08.075Z,7.85
2019-03-27T05:24:38.527Z,7.83
2019-03-27T05:27:08.719Z,6.50
2019-03-27T05:29:39.889Z,6.23
2019-03-27T05:32:10.074Z,6.12
2019-03-27T05:34:40.257Z,6.17
2019-03-27T05:37:11.468Z,6.80
2019-03-27T05:39:41.729Z,6.33
2019-03-27T05:42:11.924Z,6.87
2019-03-27T05:44:42.114Z,6.73
2019-03-27T05:47:12.622Z,7.30
2019-03-27T05:49:43.004Z,7.27
2019-03-27T05:52:13.189Z,6.87
2019-03-27T05:54:44.650Z,5.97
2019-03-27T05:57:14.832Z,6.37
2019-03-27T05:59:45.278Z,5.90
2019-03-27T06:02:15.705Z,6.10
2019-03-27T06:04:46.148Z,5.75
2019-03-27T06:07:16.417Z,5.62
2019-03-27T06:09:46.607Z,5.90
2019-03-27T06:12:17.475Z,6.10
2019-03-27T06:14:48.898Z,5.97
2019-03-27T06:17:19.080Z,5.70
2019-03-27T06:19:50.567Z,5.47
2019-03-27T06:22:20.750Z,4.60
2019-03-27T06:24:50.940Z,4.53
2019-03-27T06:27:21.129Z,4.65
2019-03-27T06:29:51.313Z,4.97
2019-03-27T06:32:21.491Z,4.67
2019-03-27T06:34:51.681Z,4.83
2019-03-27T06:37:21.861Z,5.47
2019-03-27T06:39:52.335Z,4.85
2019-03-27T06:42:23.213Z,5.25
2019-03-27T06:44:53.403Z,5.70
2019-03-27T06:47:23.587Z,5.22
2019-03-27T06:49:53.782Z,5.85
2019-03-27T06:52:24.162Z,6.03
2019-03-27T06:54:54.354Z,5.67
2019-03-27T06:57:24.531Z,5.37
2019-03-27T06:59:54.718Z,6.17
2019-03-27T07:02:28.641Z,6.05
2019-03-27T07:04:56.782Z,4.83
2019-03-27T07:07:26.980Z,5.23
2019-03-27T07:09:57.224Z,5.78
2019-03-27T07:12:27.411Z,4.73
2019-03-27T07:14:57.597Z,5.33
2019-03-27T07:17:27.774Z,5.73
2019-03-27T07:19:57.961Z,5.07
2019-03-27T07:22:28.409Z,4.70
2019-03-27T07:24:58.650Z,4.97
2019-03-27T07:27:28.826Z,5.00
2019-03-27T07:29:59.009Z,4.85
2019-03-27T07:32:29.188Z,4.73
2019-03-27T07:34:59.626Z,5.40
2019-03-27T07:37:29.801Z,4.70
2019-03-27T07:40:00.435Z,4.40
2019-03-27T07:42:30.912Z,4.85
2019-03-27T07:45:01.110Z,4.60
2019-03-27T07:47:31.303Z,4.47
2019-03-27T07:50:02.556Z,4.90
2019-03-27T07:52:33.716Z,4.67
2019-03-27T07:55:18.466Z,5.20
2019-03-27T07:57:36.277Z,4.97
2019-03-27T08:00:08.878Z,4.53
2019-03-27T08:02:39.321Z,5.00
2019-03-27T08:05:09.746Z,4.40
2019-03-27T08:07:39.938Z,4.93
2019-03-27T08:10:10.602Z,4.55
2019-03-27T08:12:40.782Z,5.43
2019-03-27T08:15:11.508Z,4.20
2019-03-27T08:17:41.675Z,3.93
2019-03-27T08:20:12.808Z,4.47
2019-03-27T08:22:43.312Z,3.90
2019-03-27T08:25:14.065Z,4.30
2019-03-27T08:27:44.251Z,4.63
2019-03-27T08:30:15.063Z,3.80
2019-03-27T08:32:45.487Z,4.50
2019-03-27T08:35:15.758Z,4.72
2019-03-27T08:37:45.929Z,4.30
2019-03-27T08:40:16.432Z,4.40
2019-03-27T08:42:46.620Z,4.92
2019-03-27T08:45:18.123Z,5.67
2019-03-27T08:47:48.393Z,5.58
2019-03-27T08:50:18.837Z,5.17
2019-03-27T08:52:49.020Z,5.93
2019-03-27T08:55:19.221Z,6.37
2019-03-27T08:57:49.475Z,5.80
2019-03-27T09:00:27.408Z,5.70
2019-03-27T09:02:57.590Z,6.17
2019-03-27T09:05:28.049Z,5.73
2019-03-27T09:07:58.366Z,4.30
2019-03-27T09:10:28.551Z,6.40
2019-03-27T09:12:58.988Z,5.20
2019-03-27T09:15:29.178Z,5.03
2019-03-27T09:17:59.555Z,6.15
2019-03-27T09:20:29.742Z,6.90
2019-03-27T09:22:59.927Z,7.07
2019-03-27T09:25:30.123Z,5.70
2019-03-27T09:28:00.427Z,6.33
2019-03-27T09:30:31.018Z,7.37
2019-03-27T09:33:01.445Z,6.00
2019-03-27T09:35:31.788Z,6.37
2019-03-27T09:38:02.116Z,5.70
2019-03-27T09:40:32.306Z,5.07
2019-03-27T09:43:02.492Z,6.00
2019-03-27T09:45:32.753Z,6.40
2019-03-27T09:48:03.093Z,5.83
2019-03-27T09:50:33.285Z,6.03
2019-03-27T09:53:03.465Z,6.20
2019-03-27T09:55:33.743Z,5.90
2019-03-27T09:58:03.999Z,6.30
2019-03-27T10:00:57.377Z,6.30
2019-03-27T10:03:27.646Z,6.07
2019-03-27T10:05:57.842Z,6.53
2019-03-27T10:08:28.283Z,5.80
2019-03-27T10:10:58.654Z,6.03
2019-03-27T10:13:28.919Z,6.23
2019-03-27T10:15:59.771Z,5.67
2019-03-27T10:18:30.026Z,7.17
2019-03-27T10:21:00.231Z,5.17
2019-03-27T10:23:30.407Z,5.70
2019-03-27T10:26:00.628Z,5.27
2019-03-27T10:28:31.781Z,5.53
2019-03-27T10:31:02.378Z,5.17
2019-03-27T10:33:32.631Z,4.63
2019-03-27T10:36:03.283Z,4.20
2019-03-27T10:38:33.454Z,4.37
2019-03-27T10:41:03.653Z,4.42
2019-03-27T10:43:34.232Z,4.57
2019-03-27T10:46:05.010Z,4.57
2019-03-27T10:48:35.196Z,4.28
2019-03-27T10:51:05.638Z,5.10
2019-03-27T10:53:35.818Z,5.33
2019-03-27T10:56:06.100Z,4.80
2019-03-27T10:58:36.860Z,5.03
2019-03-27T11:01:08.174Z,4.48
2019-03-27T11:03:38.749Z,4.47
2019-03-27T11:06:09.005Z,4.75
2019-03-27T11:08:39.182Z,3.40
2019-03-27T11:11:09.452Z,4.40
2019-03-27T11:13:39.790Z,4.97
2019-03-27T11:16:09.983Z,4.20
2019-03-27T11:18:40.237Z,4.47
2019-03-27T11:21:10.429Z,3.23
2019-03-27T11:23:40.622Z,4.00
2019-03-27T11:26:10.876Z,5.27
2019-03-27T11:28:41.073Z,4.28
2019-03-27T11:31:11.304Z,3.67
2019-03-27T11:33:41.563Z,3.87
2019-03-27T11:36:12.087Z,3.60
2019-03-27T11:38:42.335Z,4.37
2019-03-27T11:41:12.656Z,3.58
2019-03-27T11:43:54.227Z,4.05
2019-03-27T11:46:15.045Z,3.62
2019-03-27T11:48:46.240Z,4.37
2019-03-27T11:51:16.766Z,3.20
2019-03-27T11:53:46.941Z,3.72
2019-03-27T11:56:17.463Z,4.25
2019-03-27T11:58:47.920Z,4.40
2019-03-27T12:01:18.213Z,4.13
2019-03-27T12:03:48.379Z,3.90
2019-03-27T12:06:18.862Z,3.65
2019-03-27T12:08:50.959Z,3.70
2019-03-27T12:11:21.267Z,4.27
2019-03-27T12:13:51.726Z,4.50
2019-03-27T12:16:21.961Z,4.83
2019-03-27T12:18:52.213Z,4.65
2019-03-27T12:21:22.403Z,4.40
2019-03-27T12:23:52.590Z,5.10
2019-03-27T12:26:22.773Z,1.43
2019-03-27T12:28:53.035Z,6.22
2019-03-27T12:31:23.478Z,6.27
2019-03-27T12:33:53.669Z,6.73
2019-03-27T12:36:24.377Z,5.53
2019-03-27T12:38:54.634Z,5.43
2019-03-27T12:41:24.834Z,4.93
2019-03-27T12:43:55.116Z,7.20
2019-03-27T12:46:25.305Z,6.77
2019-03-27T12:48:55.755Z,6.85
2019-03-27T12:51:26.968Z,6.43
2019-03-27T12:53:57.150Z,7.07
2019-03-27T12:56:27.367Z,7.97
2019-03-27T12:58:57.563Z,8.93
2019-03-27T13:01:27.888Z,8.33
2019-03-27T13:03:59.679Z,8.40
2019-03-27T13:06:30.118Z,9.07
2019-03-27T13:09:00.290Z,7.50
2019-03-27T13:11:30.870Z,9.17
2019-03-27T13:14:01.066Z,8.23
2019-03-27T13:16:31.285Z,8.77
2019-03-27T13:19:01.470Z,5.80
2019-03-27T13:21:31.670Z,9.27
2019-03-27T13:24:02.152Z,8.70
2019-03-27T13:26:32.349Z,6.93
2019-03-27T13:29:02.811Z,7.50
2019-03-27T13:31:33.518Z,7.93
2019-03-27T13:34:04.487Z,8.10
2019-03-27T13:36:35.660Z,6.97
2019-03-27T13:39:07.951Z,6.90
2019-03-27T13:41:38.321Z,7.73
2019-03-27T13:44:08.512Z,7.70
2019-03-27T13:46:38.843Z,8.10
2019-03-27T13:49:09.039Z,7.28
2019-03-27T13:51:40.937Z,6.90
2019-03-27T13:54:11.376Z,6.95
2019-03-27T13:56:42.108Z,6.60
2019-03-27T13:59:12.296Z,6.73
2019-03-27T14:01:42.523Z,6.70
2019-03-27T14:04:13.160Z,6.30
2019-03-27T14:06:44.903Z,7.47
2019-03-27T14:09:15.460Z,7.70
2019-03-27T14:11:45.844Z,8.13
2019-03-27T14:14:16.036Z,6.73
2019-03-27T14:16:46.348Z,9.37
2019-03-27T14:19:16.533Z,9.43
2019-03-27T14:21:54.620Z,10.70
2019-03-27T14:24:18.659Z,10.73
2019-03-27T14:26:48.956Z,11.17
2019-03-27T14:29:19.968Z,11.23
2019-03-27T14:31:50.351Z,10.37
2019-03-27T14:34:20.818Z,10.70
2019-03-27T14:36:51.037Z,10.98
2019-03-27T14:39:21.239Z,11.08
2019-03-27T14:41:51.837Z,11.90
2019-03-27T14:44:22.289Z,10.53
2019-03-27T14:46:52.848Z,11.63
2019-03-27T14:49:23.333Z,10.80
2019-03-27T14:52:07.396Z,9.33
2019-03-27T14:54:25.443Z,9.97
2019-03-27T14:56:55.879Z,7.50
2019-03-27T14:59:26.087Z,10.20
2019-03-27T15:01:56.561Z,10.93
2019-03-27T15:04:28.284Z,8.60
2019-03-27T15:06:58.749Z,10.17
2019-03-27T15:09:29.014Z,5.43
2019-03-27T15:11:59.213Z,6.37
2019-03-27T15:14:29.489Z,9.80
2019-03-27T15:16:59.951Z,10.27
2019-03-27T15:19:30.393Z,7.20
2019-03-27T15:22:00.577Z,8.47
2019-03-27T15:24:30.799Z,8.40
2019-03-27T15:27:01.262Z,7.47
2019-03-27T15:29:31.459Z,8.78
2019-03-27T15:32:01.662Z,8.97
2019-03-27T15:34:31.876Z,6.93
2019-03-27T15:37:02.062Z,8.90
2019-03-27T15:39:32.271Z,7.35
2019-03-27T15:42:02.584Z,8.40
2019-03-27T15:44:32.780Z,9.83
2019-03-27T15:47:02.983Z,9.17
2019-03-27T15:49:33.445Z,9.95
2019-03-27T15:52:03.729Z,9.13
2019-03-27T15:54:34.197Z,8.67
2019-03-27T15:57:06.262Z,9.58
2019-03-27T15:59:36.788Z,8.90
2019-03-27T16:02:07.704Z,9.40
2019-03-27T16:04:38.915Z,9.63
2019-03-27T16:07:09.169Z,9.00
2019-03-27T16:09:39.382Z,9.03
2019-03-27T16:12:09.899Z,9.25
2019-03-27T16:14:40.115Z,8.28
2019-03-27T16:17:13.510Z,7.93
2019-03-27T16:19:42.728Z,8.47
2019-03-27T16:22:13.390Z,9.17
2019-03-27T16:24:44.743Z,9.17
2019-03-27T16:27:15.528Z,9.60
2019-03-27T16:29:45.923Z,8.17
2019-03-27T16:32:16.434Z,8.80
2019-03-27T16:34:46.754Z,8.63
2019-03-27T16:37:16.941Z,9.03
2019-03-27T16:39:47.648Z,8.87
2019-03-27T16:42:17.858Z,9.40
2019-03-27T16:44:48.114Z,9.73
2019-03-27T16:47:18.331Z,8.57
2019-03-27T16:49:48.636Z,6.90
2019-03-27T16:52:18.846Z,8.40
2019-03-27T16:54:49.056Z,9.00
2019-03-27T16:57:19.325Z,7.92
2019-03-27T16:59:49.531Z,7.87
2019-03-27T17:02:19.713Z,7.93
2019-03-27T17:04:49.932Z,7.73
2019-03-27T17:07:20.213Z,8.13
2019-03-27T17:09:50.974Z,7.43
2019-03-27T17:12:21.178Z,7.93
2019-03-27T17:14:51.374Z,7.27
2019-03-27T17:17:21.591Z,6.93
2019-03-27T17:19:51.884Z,7.50
2019-03-27T17:22:22.063Z,8.38
2019-03-27T17:24:55.796Z,6.72
2019-03-27T17:27:24.657Z,7.03
2019-03-27T17:29:54.858Z,7.33
2019-03-27T17:32:25.048Z,7.67
2019-03-27T17:34:55.255Z,7.87
2019-03-27T17:37:25.434Z,7.97
2019-03-27T17:39:55.661Z,8.23
2019-03-27T17:42:25.880Z,8.00
2019-03-27T17:44:56.065Z,8.08
2019-03-27T17:47:26.275Z,8.15
2019-03-27T17:49:56.798Z,7.60
2019-03-27T17:52:26.993Z,8.80
2019-03-27T17:54:57.885Z,8.10
2019-03-27T17:57:28.071Z,7.42
2019-03-27T17:59:58.272Z,7.27
2019-03-27T18:02:28.537Z,7.60
2019-03-27T18:04:58.743Z,7.80
2019-03-27T18:07:28.966Z,7.60
2019-03-27T18:09:59.334Z,6.40
2019-03-27T18:12:29.570Z,7.87
2019-03-27T18:14:59.775Z,6.90
2019-03-27T18:17:29.955Z,6.45
2019-03-27T18:20:00.348Z,6.20
2019-03-27T18:22:30.643Z,8.27
2019-03-27T18:25:00.864Z,12.93
2019-03-27T18:27:31.064Z,14.33
2019-03-27T18:30:01.279Z,11.93
2019-03-27T18:32:31.633Z,14.37
2019-03-27T18:35:01.836Z,9.83
2019-03-27T18:37:32.042Z,8.60
2019-03-27T18:40:02.257Z,6.42
2019-03-27T18:42:32.704Z,5.95
2019-03-27T18:45:02.999Z,5.40
2019-03-27T18:47:33.435Z,6.05
2019-03-27T18:50:03.721Z,5.95
2019-03-27T18:52:34.218Z,6.37
2019-03-27T18:55:04.659Z,5.73
2019-03-27T18:57:35.447Z,5.67
2019-03-27T19:00:06.826Z,6.13
2019-03-27T19:02:37.087Z,5.15
2019-03-27T19:05:08.094Z,5.70
2019-03-27T19:07:38.306Z,5.17
2019-03-27T19:10:09.750Z,5.57
2019-03-27T19:12:39.946Z,6.00
2019-03-27T19:15:10.713Z,5.92
2019-03-27T19:17:40.894Z,6.05
2019-03-27T19:20:11.445Z,5.92
2019-03-27T19:22:41.778Z,6.17
2019-03-27T19:25:12.177Z,5.67
2019-03-27T19:27:42.371Z,5.47
2019-03-27T19:30:13.170Z,5.97
2019-03-27T19:32:43.418Z,5.00
2019-03-27T19:35:13.630Z,5.80
2019-03-27T19:37:44.361Z,5.53
2019-03-27T19:40:14.753Z,6.42
2019-03-27T19:42:46.169Z,6.55
2019-03-27T19:45:16.448Z,5.10
2019-03-27T19:47:46.622Z,5.42
2019-03-27T19:50:17.005Z,4.80
2019-03-27T19:52:47.212Z,5.62
2019-03-27T19:55:18.112Z,5.63
2019-03-27T19:57:48.322Z,5.70
2019-03-27T20:00:18.851Z,5.33
2019-03-27T20:02:49.044Z,5.47
2019-03-27T20:05:19.257Z,5.90
2019-03-27T20:07:49.439Z,5.80
2019-03-27T20:10:19.644Z,5.27
2019-03-27T20:12:49.835Z,5.73
2019-03-27T20:15:20.291Z,5.60
2019-03-27T20:17:50.477Z,5.17
2019-03-27T20:20:20.697Z,6.10
2019-03-27T20:22:50.879Z,6.35
2019-03-27T20:25:21.072Z,5.20
2019-03-27T20:27:51.411Z,6.07
2019-03-27T20:30:26.648Z,5.87
2019-03-27T20:32:55.420Z,6.00
2019-03-27T20:35:25.623Z,5.70
2019-03-27T20:37:55.804Z,5.67
2019-03-27T20:40:27.798Z,6.77
2019-03-27T20:42:59.153Z,5.30
2019-03-27T20:45:29.485Z,5.53
2019-03-27T20:47:59.738Z,5.45
2019-03-27T20:50:29.940Z,5.20
2019-03-27T20:53:01.078Z,5.77
2019-03-27T20:55:31.309Z,6.47
2019-03-27T20:58:01.514Z,5.60
2019-03-27T21:00:33.452Z,5.77
2019-03-27T21:03:03.972Z,6.17
2019-03-27T21:05:35.267Z,5.70
2019-03-27T21:08:06.575Z,6.10
2019-03-27T21:10:37.285Z,5.65
2019-03-27T21:13:08.092Z,5.80
2019-03-27T21:15:38.774Z,5.90
2019-03-27T21:18:09.655Z,5.92
2019-03-27T21:20:40.268Z,6.45
2019-03-27T21:23:11.117Z,6.73
2019-03-27T21:25:41.395Z,7.53
2019-03-27T21:28:11.664Z,7.00
2019-03-27T21:30:41.912Z,6.93
2019-03-27T21:33:12.360Z,6.65
2019-03-27T21:35:43.438Z,7.33
2019-03-27T21:38:13.651Z,6.70
2019-03-27T21:40:43.910Z,6.93
2019-03-27T21:43:14.890Z,7.10
2019-03-27T21:45:45.113Z,7.20
2019-03-27T21:48:15.832Z,6.80
2019-03-27T21:50:46.042Z,7.30
2019-03-27T21:53:16.821Z,6.72
2019-03-27T21:55:47.360Z,7.30
2019-03-27T21:58:17.584Z,6.73
2019-03-27T22:00:48.075Z,8.13
2019-03-27T22:03:18.237Z,7.12
2019-03-27T22:05:48.439Z,7.03
2019-03-27T22:08:18.807Z,7.10
2019-03-27T22:10:49.256Z,7.13
2019-03-27T22:13:19.555Z,7.12
2019-03-27T22:15:49.832Z,7.93
2019-03-27T22:18:20.268Z,8.10
2019-03-27T22:20:50.499Z,7.17
2019-03-27T22:23:20.921Z,9.00
2019-03-27T22:25:51.119Z,9.05
2019-03-27T22:28:21.306Z,8.57
2019-03-27T22:30:51.763Z,8.67
2019-03-27T22:33:21.952Z,9.28
2019-03-27T22:35:52.151Z,9.80
2019-03-27T22:38:22.411Z,8.00
2019-03-27T22:40:52.803Z,9.33
2019-03-27T22:43:22.978Z,8.83
2019-03-27T22:45:53.167Z,9.53
2019-03-27T22:48:23.441Z,9.57
2019-03-27T22:50:53.638Z,9.13
2019-03-27T22:53:23.890Z,9.13
2019-03-27T22:55:54.077Z,8.63
2019-03-27T22:58:24.304Z,9.55
2019-03-27T23:00:55.478Z,8.53
2019-03-27T23:03:26.849Z,9.13
2019-03-27T23:05:57.137Z,7.10
2019-03-27T23:08:27.420Z,9.53
2019-03-27T23:10:58.293Z,10.10
2019-03-27T23:13:28.800Z,9.17
2019-03-27T23:15:59.379Z,9.43
2019-03-27T23:18:29.814Z,9.60
2019-03-27T23:21:00.126Z,10.43
2019-03-27T23:23:30.415Z,9.73
2019-03-27T23:26:03.268Z,10.27
2019-03-27T23:28:32.806Z,10.23
2019-03-27T23:31:03.000Z,9.83
2019-03-27T23:33:34.474Z,9.03
2019-03-27T23:36:04.747Z,9.63
2019-03-27T23:38:35.209Z,7.77
2019-03-27T23:41:05.546Z,10.25
2019-03-27T23:43:35.799Z,10.13
2019-03-27T23:46:06.166Z,5.97
2019-03-27T23:48:36.352Z,9.13
2019-03-27T23:51:06.627Z,8.90
2019-03-27T23:53:36.846Z,7.75
2019-03-27T23:56:16.552Z,8.60
2019-03-27T23:58:38.922Z,8.30
